Time,TemperatureF,DewpointF,PressureIn,WindDirection,WindDirectionDegrees,WindSpeedMPH,WindSpeedGustMPH,Humidity,HourlyPrecipIn,Conditions,Clouds,dailyrainin,SolarRadiationWatts/m^2,SoftwareType,DateUTC
2013-03-13 00:04:00,35.2,22.7,30.03,SW,225,3.0,4.0,60,0.00,,,0.00,0000,Weather View 32 v70,2013-03-13 05:04:00,
2013-03-13 00:09:00,35.1,22.6,30.03,SSW,202,3.0,4.0,60,0.00,,,0.00,0000,Weather View 32 v70,2013-03-13 05:09:00,
2013-03-13 00:14:00,35.1,22.6,30.03,WNW,292,3.0,4.0,60,0.00,,,0.00,0000,Weather View 32 v70,2013-03-13 05:14:00,
2013-03-13 00:24:00,35.1,23.0,30.03,SSW,202,3.0,4.0,61,0.00,,,0.00,0000,Weather View 32 v70,2013-03-13 05:24:00,
2013-03-13 00:29:00,35.4,23.3,30.02,SSW,202,3.0,4.0,61,0.00,,,0.00,0000,Weather View 32 v70,2013-03-13 05:29:00,
2013-03-13 00:34:00,35.2,23.1,30.02,WNW,292,3.0,4.0,61,0.00,,,0.00,0000,Weather View 32 v70,2013-03-13 05:34:00,
2013-03-13 00:39:00,35.1,23.0,30.02,West,270,4.0,4.0,61,0.00,,,0.00,0000,Weather View 32 v70,2013-03-13 05:39:00,
2013-03-13 00:49:00,35.1,23.3,30.03,NW,315,3.0,4.0,62,0.00,,,0.00,0000,Weather View 32 v70,2013-03-13 05:49:00,
2013-03-13 00:54:00,34.9,23.2,30.03,ESE,112,3.0,4.0,62,0.00,,,0.00,0000,Weather View 32 v70,2013-03-13 05:54:00,
2013-03-13 00:59:00,34.7,23.0,30.03,South,180,3.0,4.0,62,0.00,,,0.00,0000,Weather View 32 v70,2013-03-13 05:59:00,
2013-03-13 01:04:00,34.7,23.4,30.03,SW,225,3.0,4.0,63,0.00,,,0.00,0000,Weather View 32 v70,2013-03-13 06:04:00,
2013-03-13 01:09:00,34.7,23.0,30.03,West,270,3.0,4.0,62,0.00,,,0.00,0000,Weather View 32 v70,2013-03-13 06:09:00,
2013-03-13 01:19:00,34.3,23.4,30.03,WNW,292,4.0,4.0,64,0.00,,,0.00,0000,Weather View 32 v70,2013-03-13 06:19:00,
2013-03-13 01:24:00,34.2,23.2,30.04,WSW,248,3.0,4.0,64,0.00,,,0.00,0000,Weather View 32 v70,2013-03-13 06:24:00,
2013-03-13 01:29:00,34.2,23.2,30.04,SSW,202,3.0,4.0,64,0.00,,,0.00,0000,Weather View 32 v70,2013-03-13 06:29:00,
2013-03-13 01:34:00,34.2,22.9,30.04,WSW,248,3.0,4.0,63,0.00,,,0.00,0000,Weather View 32 v70,2013-03-13 06:34:00,
2013-03-13 01:44:00,34.0,22.7,30.05,SSE,158,3.0,4.0,63,0.00,,,0.00,0000,Weather View 32 v70,2013-03-13 06:44:00,
2013-03-13 01:49:00,33.6,22.4,30.05,SSW,202,3.0,4.0,63,0.00,,,0.00,0000,Weather View 32 v70,2013-03-13 06:49:00,
2013-03-13 01:59:00,33.4,22.2,30.05,SSW,202,3.0,4.0,63,0.00,,,0.00,0000,Weather View 32 v70,2013-03-13 06:59:00,
2013-03-13 02:09:00,33.4,22.2,30.05,West,270,4.0,4.0,63,0.00,,,0.00,0000,Weather View 32 v70,2013-03-13 07:09:00,
2013-03-13 02:14:00,33.4,22.2,30.05,NE,45,3.0,4.0,63,0.00,,,0.00,0000,Weather View 32 v70,2013-03-13 07:14:00,
2013-03-13 02:19:00,33.4,22.2,30.05,SSW,202,3.0,4.0,63,0.00,,,0.00,0000,Weather View 32 v70,2013-03-13 07:19:00,
2013-03-13 02:24:00,33.3,22.0,30.05,West,270,3.0,4.0,63,0.00,,,0.00,0000,Weather View 32 v70,2013-03-13 07:24:00,
2013-03-13 02:34:00,33.4,22.2,30.06,SSW,202,3.0,4.0,63,0.00,,,0.00,0000,Weather View 32 v70,2013-03-13 07:34:00,
2013-03-13 02:39:00,33.4,22.2,30.06,SSE,158,2.0,4.0,63,0.00,,,0.00,0000,Weather View 32 v70,2013-03-13 07:39:00,
2013-03-13 02:44:00,33.3,22.0,30.06,WSW,248,3.0,4.0,63,0.00,,,0.00,0000,Weather View 32 v70,2013-03-13 07:44:00,
2013-03-13 02:49:00,33.3,22.0,30.07,SSW,202,3.0,4.0,63,0.00,,,0.00,0000,Weather View 32 v70,2013-03-13 07:49:00,
2013-03-13 02:59:00,32.9,23.5,30.07,WNW,292,2.0,4.0,68,0.00,,,0.00,0000,Weather View 32 v70,2013-03-13 07:59:00,
2013-03-13 03:04:00,32.5,23.1,30.07,WNW,292,2.0,4.0,68,0.00,,,0.00,0000,Weather View 32 v70,2013-03-13 08:04:00,
2013-03-13 03:09:00,32.5,23.1,30.09,WNW,292,3.0,4.0,68,0.00,,,0.00,0000,Weather View 32 v70,2013-03-13 08:09:00,
2013-03-13 03:14:00,32.2,21.7,30.09,West,270,4.0,4.0,65,0.00,,,0.00,0000,Weather View 32 v70,2013-03-13 08:14:00,
2013-03-13 03:24:00,31.5,21.0,30.10,WNW,292,4.0,5.0,65,0.00,,,0.00,0000,Weather View 32 v70,2013-03-13 08:24:00,